• Join FlightAware (Why Join?)
  • Login
  • US Flag 
06:12PM EST


 

Airport Tracker/Info


-or-


 

Live Flight TrackerFlight Track Log ✈ CTL78 ✈ 24-May-2013 ✈ KBKL - KPTK

Flight Track Log - Related Links

Times and Time Zones

All times are in EDT time to prevent confusion due to time zone crossing. See the CTL78 flight status page for this flight to view local times or setup timezone preferences in your user account.

Time Position Orientation Groundspeed Altitude Reporting Facility
EDT Latitude Longitude Course Direction KTS MPH feet Rate Location/Type
10:36PM 41.6562 -81.8878 312° West  Level Estimated
10:37PM 41.6793 -81.9220 312° West  Level Estimated
10:38PM 41.7023 -81.9562 312° West  Level Estimated
10:39PM 41.7254 -81.9904 312° West  Level Estimated
10:40PM 41.7484 -82.0246 312° West  Level Estimated
10:41PM 41.7715 -82.0589 312° West  Level Estimated
10:42PM 41.7945 -82.0932 312° West  Level Estimated
10:43PM 41.8175 -82.1275 312° West  Level Estimated
10:44PM 41.8405 -82.1618 312° West  Level Estimated
10:45PM 41.8635 -82.1962 312° West  Level Estimated
10:46PM 41.8865 -82.2306 312° West  Level Estimated
10:47PM 41.9095 -82.2650 312° West  Level Estimated
10:48PM 41.9325 -82.2994 312° West  Level Estimated
10:49PM 41.9554 -82.3339 312° West  Level Estimated
10:50PM 41.9784 -82.3684 312° West  Level Estimated
10:51PM 42.0013 -82.4029 312° West  Level Estimated
10:52PM 42.0243 -82.4374 312° West  Level Estimated
10:53PM 42.0472 -82.4720 312° West  Level Estimated
10:54PM 42.0701 -82.5066 312° West  Level Estimated
10:55PM 42.0929 -82.5412 312° West  Level Estimated
10:56PM 42.1158 -82.5758 312° West  Level Estimated
10:57PM 42.1387 -82.6105 312° West  Level Estimated
10:58PM 42.1616 -82.6452 312° West  Level Estimated
10:59PM 42.1844 -82.6799 312° West  Level Estimated
11:00PM 42.2072 -82.7146 312° West  Level Estimated
11:01PM 42.2301 -82.7494 312° West  Level Estimated
11:02PM 42.2529 -82.7842 312° West  Level Estimated
11:03PM 42.2757 -82.8190 312° West  Level Estimated
11:04PM 42.2985 -82.8538 312° West  Level Estimated
11:05PM 42.3213 -82.8887 311° West  Level Estimated
11:06PM 42.3441 -82.9236 311° West  Level Estimated
11:07PM 42.3669 -82.9585 311° West  Level Estimated
11:08PM 42.3896 -82.9934 311° West  Level Estimated
11:09PM 42.4124 -83.0284 311° West  Level Estimated
11:10PM 42.4351 -83.0634 311° West  Level Estimated
11:11PM 42.4578 -83.0984 311° West  Level Estimated
11:12PM 42.4805 -83.1334 311° West  Level Estimated
11:13PM 42.5032 -83.1685 311° West  Level Estimated
11:14PM 42.5259 -83.2036 311° West  Level Estimated
11:15PM 42.5486 -83.2387 311° West  Level Estimated
11:16PM 42.5713 -83.2738 311° West  Level Estimated
11:17PM 42.5939 -83.3090 311° West  Level Estimated
11:18PM 42.6166 -83.3442 311° West  Level Estimated
11:19PM 42.6392 -83.3794 311° West  Level Estimated
11:20PM 42.6619 -83.4146 311° West  Level Estimated
11:21PM 42.6656 -83.4205 311° West  Level Estimated
11:22PM 42.6656 -83.4205 140° Southeast  Level Estimated
11:23PM 42.6656 -83.4205 140° Southeast  Level Estimated
11:24PM 42.6656 -83.4205 140° Southeast  Level Estimated
11:25PM 42.6656 -83.4205 140° Southeast  Level Estimated
11:26PM 42.6656 -83.4205 140° Southeast  Level Estimated
11:27PM 42.6656 -83.4205 140° Southeast  Level Estimated
11:28PM 42.6656 -83.4205 140° Southeast  Level Estimated
11:29PM 42.6656 -83.4205 140° Southeast  Level Estimated
11:30PM 42.6656 -83.4205 140° Southeast  Level Estimated
11:31PM 42.6656 -83.4205 140° Southeast  Level Estimated
11:32PM 42.6656 -83.4205 140° Southeast  Level Estimated
11:33PM 42.6656 -83.4205 140° Southeast  Level Estimated
11:34PM 42.6656 -83.4205 140° Southeast  Level Estimated
11:35PM 42.6656 -83.4205 140° Southeast  Level Estimated
11:36PM 42.6656 -83.4205 140° Southeast  Level Estimated